Time;durP1;ratioP1;P1;durP2;ratioP2;P2;SDS_P1;SDS_P2;PMS_P1;PMS_P2;Temp;Humidity;BMP_temperature;BMP_pressure;BME280_temperature;BME280_humidity;BME280_pressure;Samples;Min_cycle;Max_cycle;Signal;HPM_P1;HPM_P2
2023/06/07 00:00:24;;;;;;;14.05;3.05;;;12.60;99.90;;;;;;5053333;28;20033;-77
2023/06/07 00:02:50;;;;;;;7.25;2.30;;;12.60;99.90;;;;;;5053247;28;20029;-77
2023/06/07 00:05:16;;;;;;;5.68;2.20;;;12.50;99.90;;;;;;5053620;28;20025;-77
2023/06/07 00:07:42;;;;;;;7.82;2.80;;;12.50;99.90;;;;;;5053165;28;20036;-77
2023/06/07 00:10:08;;;;;;;10.05;2.63;;;12.50;99.90;;;;;;5053612;28;20025;-76
2023/06/07 00:12:34;;;;;;;7.30;2.45;;;12.40;99.90;;;;;;5052080;28;20048;-77
2023/06/07 00:15:00;;;;;;;6.07;2.25;;;12.40;99.90;;;;;;5053330;28;20021;-76
2023/06/07 00:17:27;;;;;;;5.97;2.35;;;12.30;99.90;;;;;;5053466;28;20555;-76
2023/06/07 00:19:53;;;;;;;7.82;2.30;;;12.20;99.90;;;;;;5052369;28;20013;-77
2023/06/07 00:22:19;;;;;;;14.43;3.80;;;12.20;99.90;;;;;;5052477;28;20036;-77
2023/06/07 00:24:45;;;;;;;6.30;2.03;;;12.70;99.90;;;;;;5052309;28;20468;-77
2023/06/07 00:27:10;;;;;;;11.75;1.80;;;12.20;99.90;;;;;;5053629;28;20028;-77
2023/06/07 00:29:36;;;;;;;7.65;2.17;;;12.20;99.90;;;;;;5053251;28;20033;-77
2023/06/07 00:32:02;;;;;;;4.88;2.30;;;12.20;99.90;;;;;;5052809;28;20121;-76
2023/06/07 00:34:28;;;;;;;9.45;2.10;;;12.10;99.90;;;;;;5053639;28;20044;-77
2023/06/07 00:36:54;;;;;;;7.05;1.90;;;12.10;99.90;;;;;;5053188;28;20025;-77
2023/06/07 00:39:20;;;;;;;6.63;2.35;;;12.00;99.90;;;;;;5052008;28;20086;-77
2023/06/07 00:41:45;;;;;;;9.70;2.20;;;12.00;99.90;;;;;;5052253;28;20037;-77
2023/06/07 00:44:12;;;;;;;11.35;2.05;;;12.00;99.90;;;;;;5052173;28;20078;-77
2023/06/07 00:46:38;;;;;;;7.70;2.30;;;12.00;99.90;;;;;;5053052;28;20025;-77
2023/06/07 00:49:05;;;;;;;6.85;1.80;;;11.90;99.90;;;;;;5052961;28;20096;-77
2023/06/07 00:51:31;;;;;;;5.13;2.38;;;11.90;99.90;;;;;;5053163;28;20081;-77
2023/06/07 00:54:03;;;;;;;8.45;1.88;;;11.80;99.90;;;;;;5053419;28;20024;-77
2023/06/07 00:56:29;;;;;;;6.97;2.17;;;11.80;99.90;;;;;;5053363;28;20503;-77
2023/06/07 00:58:55;;;;;;;7.60;1.88;;;11.80;99.90;;;;;;5053273;28;20016;-77
2023/06/07 01:01:21;;;;;;;7.82;1.60;;;11.70;99.90;;;;;;5052924;28;20017;-76
2023/06/07 01:03:47;;;;;;;5.90;1.73;;;11.70;99.90;;;;;;5051439;28;20021;-77
2023/06/07 01:06:13;;;;;;;8.18;1.77;;;11.70;99.90;;;;;;5053365;28;20480;-77
2023/06/07 01:08:40;;;;;;;4.35;1.42;;;11.70;99.90;;;;;;5052854;28;20088;-78
2023/06/07 01:11:08;;;;;;;6.10;1.70;;;12.70;99.90;;;;;;5052635;28;20052;-78
2023/06/07 01:13:34;;;;;;;6.90;1.58;;;11.70;99.90;;;;;;5052399;28;20021;-76
2023/06/07 01:16:00;;;;;;;8.70;2.17;;;11.60;99.90;;;;;;5052710;28;20499;-77
2023/06/07 01:18:27;;;;;;;7.30;1.85;;;;;;;;;;5054163;28;20037;-77
2023/06/07 01:20:56;;;;;;;8.85;2.28;;;11.60;99.90;;;;;;5057576;28;20063;-76
2023/06/07 01:23:31;;;;;;;;;;;11.50;99.90;;;;;;5058427;28;20075;-77
2023/06/07 01:25:58;;;;;;;12.93;2.10;;;11.60;99.90;;;;;;5057576;28;19985;-77
2023/06/07 01:28:25;;;;;;;7.82;1.70;;;11.50;99.90;;;;;;5057192;28;20425;-77
2023/06/07 01:30:53;;;;;;;4.28;2.13;;;11.50;99.90;;;;;;5057926;28;20115;-76
2023/06/07 01:33:19;;;;;;;7.53;1.48;;;11.50;99.90;;;;;;5057789;28;20029;-78
2023/06/07 01:35:46;;;;;;;8.90;1.70;;;12.90;99.90;;;;;;5056032;28;20021;-77
2023/06/07 01:38:19;;;;;;;8.63;1.80;;;11.40;99.90;;;;;;5058201;28;20024;-77
2023/06/07 01:40:45;;;;;;;9.48;1.55;;;11.40;99.90;;;;;;5057707;28;20021;-77
2023/06/07 01:43:11;;;;;;;4.90;1.20;;;11.40;99.90;;;;;;5056422;28;20024;-78
2023/06/07 01:45:37;;;;;;;4.35;2.00;;;11.40;99.90;;;;;;5056304;28;20087;-78
2023/06/07 01:48:04;;;;;;;8.32;1.67;;;11.40;99.90;;;;;;5057732;28;20021;-77
2023/06/07 01:50:29;;;;;;;8.20;2.17;;;11.30;99.90;;;;;;5057404;28;20079;-78
2023/06/07 01:52:55;;;;;;;9.20;1.80;;;11.60;99.90;;;;;;5056177;28;20029;-78
2023/06/07 01:55:22;;;;;;;7.38;2.08;;;11.30;99.90;;;;;;5054782;28;20017;-77
2023/06/07 01:58:06;;;;;;;4.82;1.70;;;11.20;99.90;;;;;;5055589;28;20024;-77
2023/06/07 02:00:58;;;;;;;7.43;1.40;;;11.20;99.90;;;;;;5055615;28;20388;-77
2023/06/07 02:03:33;;;;;;;8.55;2.33;;;11.20;99.90;;;;;;5054467;28;20053;-77
2023/06/07 02:06:03;;;;;;;8.05;1.45;;;11.20;99.90;;;;;;5054300;28;20158;-77
2023/06/07 02:08:40;;;;;;;6.88;1.42;;;11.10;99.90;;;;;;5054155;28;20021;-77
2023/06/07 02:11:07;;;;;;;17.70;2.45;;;11.20;99.90;;;;;;5056230;28;20028;-78
2023/06/07 02:13:40;;;;;;;6.25;1.25;;;11.10;99.90;;;;;;5054990;28;20029;-77
2023/06/07 02:16:06;;;;;;;8.73;2.63;;;11.10;99.90;;;;;;5054175;28;20448;-77
2023/06/07 02:18:37;;;;;;;12.10;1.65;;;11.00;99.90;;;;;;5053952;28;20084;-77
2023/06/07 02:21:03;;;;;;;11.60;2.15;;;10.90;99.90;;;;;;5055510;28;20071;-77
2023/06/07 02:23:28;;;;;;;9.45;2.40;;;12.00;99.90;;;;;;5055399;28;20029;-77
2023/06/07 02:25:54;;;;;;;9.18;1.88;;;11.00;99.90;;;;;;5055097;28;20078;-77
2023/06/07 02:28:20;;;;;;;8.98;1.98;;;10.90;99.90;;;;;;5053915;28;20025;-77
2023/06/07 02:30:46;;;;;;;5.00;2.10;;;11.00;99.90;;;;;;5055337;28;20519;-77
2023/06/07 02:33:13;;;;;;;6.68;2.30;;;11.60;99.90;;;;;;5054977;28;20515;-77
2023/06/07 02:35:48;;;;;;;6.47;1.50;;;11.00;99.90;;;;;;5054940;28;20013;-77
2023/06/07 02:38:14;;;;;;;7.72;1.85;;;11.00;99.90;;;;;;5054929;28;20092;-77
2023/06/07 02:40:39;;;;;;;8.90;2.70;;;10.90;99.90;;;;;;5054858;28;20143;-77
2023/06/07 02:43:05;;;;;;;19.05;2.80;;;10.90;99.90;;;;;;5054916;28;20028;-77
2023/06/07 02:45:31;;;;;;;7.45;2.13;;;11.00;99.90;;;;;;5054927;28;20025;-77
2023/06/07 02:47:56;;;;;;;10.45;2.20;;;10.90;99.90;;;;;;5053160;28;20112;-77
2023/06/07 02:50:22;;;;;;;9.55;1.85;;;10.90;99.90;;;;;;5055360;28;20041;-77
2023/06/07 02:52:48;;;;;;;5.07;1.35;;;10.90;99.90;;;;;;5054549;28;20071;-77
2023/06/07 02:55:13;;;;;;;10.23;2.90;;;10.80;99.90;;;;;;5054887;28;20025;-77
2023/06/07 02:57:40;;;;;;;8.50;1.40;;;11.60;99.90;;;;;;5054603;28;20017;-76
2023/06/07 03:00:11;;;;;;;10.90;2.10;;;10.80;99.90;;;;;;5054520;28;20044;-77
2023/06/07 03:02:38;;;;;;;6.93;1.65;;;10.80;99.90;;;;;;5054495;28;20032;-77
2023/06/07 03:05:05;;;;;;;7.43;1.77;;;10.80;99.90;;;;;;5054451;28;20416;-77
2023/06/07 03:07:32;;;;;;;8.65;1.10;;;10.80;99.90;;;;;;5054342;28;20064;-77
2023/06/07 03:09:58;;;;;;;10.02;1.30;;;10.80;99.90;;;;;;5054230;28;20083;-77
2023/06/07 03:12:24;;;;;;;8.38;1.33;;;10.90;99.90;;;;;;5054174;28;20087;-77
2023/06/07 03:14:49;;;;;;;4.50;1.73;;;10.70;99.90;;;;;;5054199;28;20017;-77
2023/06/07 03:17:17;;;;;;;8.45;2.13;;;10.80;99.90;;;;;;5054452;28;20104;-77
2023/06/07 03:19:42;;;;;;;7.43;1.40;;;10.70;99.90;;;;;;5052742;28;20396;-77
2023/06/07 03:22:08;;;;;;;5.88;1.70;;;10.70;99.90;;;;;;5054563;28;20086;-77
2023/06/07 03:24:36;;;;;;;14.45;1.75;;;12.00;99.90;;;;;;5054540;28;20392;-77
2023/06/07 03:27:03;;;;;;;10.13;2.05;;;12.30;99.90;;;;;;5054039;28;20021;-77
2023/06/07 03:29:30;;;;;;;8.02;1.90;;;10.80;99.90;;;;;;5053941;28;20384;-76
2023/06/07 03:31:55;;;;;;;6.50;1.98;;;11.20;99.90;;;;;;5053657;28;20040;-77
2023/06/07 03:34:21;;;;;;;13.80;2.42;;;10.80;99.90;;;;;;5052685;28;20384;-77
2023/06/07 03:36:47;;;;;;;10.85;1.45;;;10.80;99.90;;;;;;5053713;28;20032;-77
2023/06/07 03:39:13;;;;;;;9.38;1.45;;;10.80;99.90;;;;;;5052586;28;20021;-77
2023/06/07 03:41:39;;;;;;;6.95;1.33;;;10.80;99.90;;;;;;5053198;28;20027;-77
2023/06/07 03:44:04;;;;;;;3.55;1.55;;;10.80;99.90;;;;;;5053972;28;20079;-77
2023/06/07 03:46:30;;;;;;;6.65;1.88;;;10.80;99.90;;;;;;5053696;28;20021;-77
2023/06/07 03:48:56;;;;;;;9.40;1.77;;;10.80;99.90;;;;;;5053497;28;20056;-77
2023/06/07 03:51:21;;;;;;;6.32;1.70;;;10.80;99.90;;;;;;5053600;28;20022;-77
2023/06/07 03:53:47;;;;;;;10.18;2.30;;;12.40;99.90;;;;;;5053582;28;20028;-77
2023/06/07 03:56:12;;;;;;;7.88;1.27;;;10.90;99.90;;;;;;5053582;28;20029;-77
2023/06/07 03:58:38;;;;;;;7.97;2.35;;;10.90;99.90;;;;;;5052128;28;20021;-78
2023/06/07 04:01:03;;;;;;;9.98;2.30;;;10.90;99.90;;;;;;5053698;28;20055;-77
2023/06/07 04:03:32;;;;;;;6.57;1.33;;;10.90;99.90;;;;;;5053396;28;20028;-77
2023/06/07 04:05:58;;;;;;;;;;;10.90;99.90;;;;;;5053776;28;20071;-77
2023/06/07 04:08:23;;;;;;;8.20;1.63;;;10.90;99.90;;;;;;5051968;28;20237;-77
2023/06/07 04:10:50;;;;;;;8.40;2.25;;;10.90;99.90;;;;;;5053349;28;20472;-77
2023/06/07 04:13:15;;;;;;;8.63;1.55;;;10.90;99.90;;;;;;5053251;28;20108;-77
2023/06/07 04:15:42;;;;;;;9.68;1.83;;;10.90;99.90;;;;;;5053135;28;20424;-77
2023/06/07 04:18:07;;;;;;;7.68;1.35;;;10.90;99.90;;;;;;5053112;28;20021;-77
2023/06/07 04:20:33;;;;;;;6.07;1.45;;;10.90;99.90;;;;;;5053104;28;20391;-77
2023/06/07 04:22:59;;;;;;;5.72;1.38;;;10.90;99.90;;;;;;5053096;28;20560;-77
2023/06/07 04:25:33;;;;;;;9.98;1.20;;;10.90;99.90;;;;;;5051859;28;20021;-77
2023/06/07 04:28:00;;;;;;;7.57;1.02;;;10.90;99.90;;;;;;5053080;28;20025;-77
2023/06/07 04:30:36;;;;;;;6.57;1.65;;;11.00;99.90;;;;;;5053391;28;20029;-77
2023/06/07 04:33:08;;;;;;;5.50;1.80;;;11.00;99.90;;;;;;5052959;28;20504;-77
2023/06/07 04:35:38;;;;;;;8.80;1.77;;;11.10;99.90;;;;;;5053037;28;20021;-77
2023/06/07 04:38:03;;;;;;;4.80;1.67;;;11.10;99.90;;;;;;5051708;28;20075;-77
2023/06/07 04:40:30;;;;;;;5.50;1.20;;;11.40;99.90;;;;;;5053548;28;20488;-77
2023/06/07 04:43:04;;;;;;;6.88;1.60;;;11.30;99.90;;;;;;5051596;28;20025;-77
2023/06/07 04:45:31;;;;;;;35.25;2.05;;;11.30;99.90;;;;;;5053119;28;20029;-77
2023/06/07 04:47:58;;;;;;;5.40;1.13;;;12.80;99.90;;;;;;5052761;28;20025;-77
2023/06/07 04:50:26;;;;;;;11.25;1.35;;;11.90;99.90;;;;;;5051652;28;20155;-77
2023/06/07 04:53:00;;;;;;;3.95;1.83;;;11.60;99.90;;;;;;5052686;28;20021;-77
2023/06/07 04:55:30;;;;;;;5.22;1.20;;;11.70;99.90;;;;;;5057044;28;20032;-77
2023/06/07 04:57:56;;;;;;;12.90;2.17;;;11.80;99.90;;;;;;5056874;28;20078;-77
2023/06/07 05:00:24;;;;;;;8.55;2.17;;;11.80;99.90;;;;;;5056630;28;20377;-77
2023/06/07 05:02:50;;;;;;;3.90;1.40;;;12.00;99.90;;;;;;5057062;28;20465;-77
2023/06/07 05:05:16;;;;;;;10.18;1.23;;;12.30;99.90;;;;;;5056912;28;20052;-77
2023/06/07 05:07:42;;;;;;;9.65;1.27;;;12.10;99.90;;;;;;5055375;28;20083;-77
2023/06/07 05:10:08;;;;;;;6.10;1.45;;;12.40;99.90;;;;;;5056434;28;20036;-77
2023/06/07 05:12:33;;;;;;;5.72;1.33;;;12.30;99.90;;;;;;5056541;28;20036;-77
2023/06/07 05:14:59;;;;;;;7.97;1.50;;;12.40;99.90;;;;;;5056522;28;20058;-77
2023/06/07 05:17:28;;;;;;;7.30;1.50;;;12.50;99.90;;;;;;5055312;28;20021;-77
2023/06/07 05:19:54;;;;;;;6.60;1.20;;;14.20;99.90;;;;;;5059837;28;20020;-77
2023/06/07 05:22:21;;;;;;;12.90;2.53;;;12.50;99.90;;;;;;5075039;28;20483;-77
2023/06/07 05:24:47;;;;;;;12.23;1.73;;;12.60;99.90;;;;;;5074853;28;20547;-77
2023/06/07 05:27:14;;;;;;;5.80;0.85;;;12.70;99.90;;;;;;5076201;28;20033;-77
2023/06/07 05:29:39;;;;;;;4.97;1.40;;;12.90;99.90;;;;;;5076219;28;20151;-77
2023/06/07 05:32:05;;;;;;;5.88;0.40;;;13.10;99.90;;;;;;5075899;28;20541;-77
2023/06/07 05:34:31;;;;;;;9.07;1.60;;;13.40;99.90;;;;;;5075111;28;20421;-77
2023/06/07 05:36:58;;;;;;;6.97;0.63;;;13.90;99.90;;;;;;5076313;28;20028;-77
2023/06/07 05:39:23;;;;;;;7.85;1.55;;;13.90;99.90;;;;;;5074520;28;20028;-77
2023/06/07 05:41:49;;;;;;;9.02;0.88;;;14.90;99.90;;;;;;5074936;28;20426;-77
2023/06/07 05:44:15;;;;;;;7.50;1.05;;;13.80;99.90;;;;;;5075960;28;20043;-77
2023/06/07 05:46:41;;;;;;;9.55;0.93;;;13.80;99.90;;;;;;5076216;28;20020;-77
2023/06/07 05:49:06;;;;;;;5.57;0.85;;;13.70;99.90;;;;;;5075945;28;20107;-77
2023/06/07 05:51:32;;;;;;;9.55;0.98;;;14.50;99.90;;;;;;5076338;28;20103;-77
2023/06/07 05:53:58;;;;;;;4.65;1.52;;;13.50;99.90;;;;;;5074858;28;20055;-78
2023/06/07 05:56:24;;;;;;;12.00;1.92;;;13.50;99.90;;;;;;5075828;28;20021;-76
2023/06/07 05:58:50;;;;;;;7.07;1.00;;;13.40;99.90;;;;;;5074412;28;20028;-76
2023/06/07 06:01:17;;;;;;;6.38;1.20;;;13.40;99.90;;;;;;5075478;28;20025;-76
2023/06/07 06:03:42;;;;;;;6.15;1.10;;;13.30;99.90;;;;;;5075811;28;20396;-77
2023/06/07 06:06:13;;;;;;;17.33;1.20;;;13.10;99.90;;;;;;5075622;28;20013;-77
2023/06/07 06:08:38;;;;;;;8.27;1.52;;;13.00;99.90;;;;;;5074215;28;20049;-77
2023/06/07 06:11:04;;;;;;;12.43;1.50;;;12.90;99.90;;;;;;5075539;28;20083;-77
2023/06/07 06:13:30;;;;;;;7.68;1.20;;;13.60;99.90;;;;;;5075184;28;20373;-77
2023/06/07 06:15:56;;;;;;;9.60;1.50;;;12.90;99.90;;;;;;5075325;28;20051;-77
2023/06/07 06:18:21;;;;;;;17.55;2.20;;;13.00;99.90;;;;;;5075635;28;20059;-77
2023/06/07 06:20:47;;;;;;;12.98;1.42;;;13.10;99.90;;;;;;5075595;28;20475;-77
2023/06/07 06:23:12;;;;;;;14.48;1.90;;;14.00;99.90;;;;;;5075086;28;20024;-77
2023/06/07 06:25:38;;;;;;;10.77;2.08;;;13.10;99.90;;;;;;5074044;28;20073;-77
2023/06/07 06:28:04;;;;;;;6.60;1.35;;;13.20;99.90;;;;;;5073802;28;20396;-77
2023/06/07 06:30:29;;;;;;;6.50;1.02;;;13.40;99.90;;;;;;5073760;28;20610;-77
2023/06/07 06:32:55;;;;;;;5.18;1.23;;;13.70;99.90;;;;;;5074909;28;20029;-77
2023/06/07 06:35:21;;;;;;;8.93;1.08;;;13.60;99.90;;;;;;5073718;28;20025;-77
2023/06/07 06:37:52;;;;;;;10.32;1.15;;;13.90;99.90;;;;;;5073750;28;20414;-77
2023/06/07 06:40:21;;;;;;;11.63;1.90;;;13.90;99.90;;;;;;5073548;28;20028;-77
2023/06/07 06:42:46;;;;;;;;;;;14.10;99.90;;;;;;5075576;28;20032;-77
2023/06/07 06:45:12;;;;;;;8.77;1.80;;;14.40;99.90;;;;;;5075107;28;19908;-77
2023/06/07 06:47:41;;;;;;;5.20;0.35;;;14.40;99.90;;;;;;5073596;28;20058;-77
2023/06/07 06:50:08;;;;;;;6.72;0.70;;;14.70;99.90;;;;;;5073430;28;20399;-77
2023/06/07 06:52:33;;;;;;;12.80;1.23;;;15.10;99.90;;;;;;5062032;28;20037;-77
2023/06/07 06:54:59;;;;;;;7.35;1.80;;;15.20;99.90;;;;;;5053446;28;20368;-77
2023/06/07 06:57:24;;;;;;;7.30;0.95;;;15.20;99.90;;;;;;5053349;28;20048;-77
2023/06/07 06:59:50;;;;;;;6.07;1.38;;;15.30;99.90;;;;;;5054457;28;20472;-77
2023/06/07 07:02:16;;;;;;;7.10;0.93;;;15.50;99.90;;;;;;5054904;28;20495;-77
2023/06/07 07:04:42;;;;;;;6.93;1.08;;;15.50;99.90;;;;;;5054604;28;20028;-77
2023/06/07 07:07:07;;;;;;;7.63;1.35;;;15.50;99.90;;;;;;5054643;28;20104;-77
2023/06/07 07:09:33;;;;;;;9.13;0.93;;;15.40;99.90;;;;;;5054388;28;20496;-77
2023/06/07 07:11:59;;;;;;;6.68;0.90;;;16.90;99.90;;;;;;5057145;28;20412;-78
2023/06/07 07:14:24;;;;;;;7.85;1.75;;;15.20;99.90;;;;;;5057596;28;20021;-77
2023/06/07 07:16:50;;;;;;;6.13;0.70;;;15.70;99.90;;;;;;5055134;28;20020;-79
2023/06/07 07:19:15;;;;;;;4.68;1.13;;;17.30;99.90;;;;;;5056164;28;20056;-79
2023/06/07 07:21:43;;;;;;;3.78;0.52;;;15.50;99.90;;;;;;5057078;28;20029;-79
2023/06/07 07:24:08;;;;;;;6.72;1.17;;;17.50;99.90;;;;;;5057761;28;20430;-79
2023/06/07 07:26:35;;;;;;;6.75;0.70;;;15.50;99.90;;;;;;5057247;28;20017;-78
2023/06/07 07:29:01;;;;;;;12.43;1.30;;;15.70;99.90;;;;;;5055969;28;20017;-78
2023/06/07 07:31:30;;;;;;;5.95;0.70;;;15.60;99.90;;;;;;5056723;28;20079;-78
2023/06/07 07:33:56;;;;;;;10.80;1.90;;;15.80;99.90;;;;;;5057206;28;20151;-77
2023/06/07 07:36:22;;;;;;;10.00;1.13;;;16.10;99.90;;;;;;5057037;28;20029;-78
2023/06/07 07:38:48;;;;;;;5.90;1.50;;;16.20;99.90;;;;;;5057125;28;20017;-78
2023/06/07 07:41:14;;;;;;;11.50;1.85;;;16.30;99.90;;;;;;5056817;28;20029;-78
2023/06/07 07:43:40;;;;;;;6.55;0.73;;;16.40;99.90;;;;;;5056719;28;20021;-78
2023/06/07 07:46:06;;;;;;;5.75;0.70;;;17.20;99.90;;;;;;5055514;28;20415;-78
2023/06/07 07:48:31;;;;;;;10.63;1.98;;;16.70;99.90;;;;;;5056274;28;20032;-78
2023/06/07 07:50:57;;;;;;;5.63;0.88;;;16.70;99.90;;;;;;5056605;28;20469;-78
2023/06/07 07:53:23;;;;;;;5.78;0.95;;;16.90;99.90;;;;;;5056455;28;20029;-78
2023/06/07 07:55:48;;;;;;;6.90;1.13;;;17.00;99.90;;;;;;5056181;28;20437;-78
2023/06/07 07:58:14;;;;;;;3.85;0.43;;;;;;;;;;5055065;28;20103;-77
2023/06/07 08:00:41;;;;;;;8.98;1.58;;;17.10;99.90;;;;;;5055471;28;20029;-78
2023/06/07 08:03:08;;;;;;;8.10;1.05;;;17.10;99.90;;;;;;5055478;28;20021;-78
2023/06/07 08:05:33;;;;;;;5.78;1.02;;;17.10;99.90;;;;;;5055850;28;20021;-78
2023/06/07 08:08:00;;;;;;;8.82;1.50;;;17.20;99.90;;;;;;5055619;28;20040;-78
2023/06/07 08:10:26;;;;;;;6.43;1.10;;;17.20;99.90;;;;;;5055007;28;20051;-78
2023/06/07 08:12:52;;;;;;;7.53;1.27;;;17.30;99.90;;;;;;5055627;28;20029;-78
2023/06/07 08:15:17;;;;;;;5.57;0.40;;;17.40;99.90;;;;;;5056291;28;20377;-78
2023/06/07 08:17:43;;;;;;;8.60;0.77;;;17.20;99.90;;;;;;5056701;28;20476;-78
2023/06/07 08:20:09;;;;;;;5.68;0.75;;;17.60;99.90;;;;;;5056518;28;20025;-78
2023/06/07 08:22:37;;;;;;;8.23;1.38;;;17.60;99.90;;;;;;5056281;28;20052;-78
2023/06/07 08:25:04;;;;;;;5.77;0.77;;;17.60;99.90;;;;;;5056128;28;20017;-79
2023/06/07 08:27:30;;;;;;;6.85;0.68;;;17.60;99.90;;;;;;5054662;28;20017;-78
2023/06/07 08:29:55;;;;;;;6.68;0.93;;;17.50;99.90;;;;;;5054365;28;20021;-77
2023/06/07 08:32:21;;;;;;;6.45;0.63;;;17.60;99.90;;;;;;5055815;28;20025;-78
2023/06/07 08:34:47;;;;;;;8.10;0.88;;;17.80;99.90;;;;;;5056373;28;20025;-78
2023/06/07 08:37:13;;;;;;;5.07;0.77;;;17.90;99.90;;;;;;5055818;28;20108;-78
2023/06/07 08:39:38;;;;;;;5.50;0.40;;;18.10;99.90;;;;;;5057199;28;20083;-79
2023/06/07 08:42:04;;;;;;;4.93;0.80;;;18.30;99.90;;;;;;5055010;28;20029;-79
2023/06/07 08:44:33;;;;;;;6.28;0.52;;;18.50;99.90;;;;;;5056618;28;20550;-78
2023/06/07 08:47:00;;;;;;;7.13;0.95;;;18.60;99.90;;;;;;5053980;28;20048;-79
2023/06/07 08:49:28;;;;;;;7.25;0.70;;;18.90;99.90;;;;;;5054211;28;20021;-78
2023/06/07 08:51:56;;;;;;;8.32;1.00;;;19.30;99.90;;;;;;5054755;28;20029;-79
2023/06/07 08:54:26;;;;;;;6.55;0.75;;;19.30;99.90;;;;;;5054184;28;20078;-78
2023/06/07 08:56:55;;;;;;;7.65;1.15;;;19.50;99.90;;;;;;5054406;28;20024;-78
2023/06/07 08:59:24;;;;;;;3.33;1.05;;;19.60;99.90;;;;;;5054243;28;20017;-78
2023/06/07 09:01:51;;;;;;;4.60;0.85;;;19.60;99.90;;;;;;5054000;28;20020;-78
2023/06/07 09:04:17;;;;;;;4.20;1.13;;;20.00;99.90;;;;;;5053492;28;20079;-78
2023/06/07 09:06:43;;;;;;;6.57;1.13;;;19.50;99.90;;;;;;5055125;28;20490;-78
2023/06/07 09:09:09;;;;;;;6.15;0.95;;;19.40;99.90;;;;;;5057507;28;20021;-79
2023/06/07 09:11:35;;;;;;;5.85;0.60;;;19.40;99.90;;;;;;5055995;28;20018;-78
2023/06/07 09:14:00;;;;;;;7.00;1.60;;;19.70;99.90;;;;;;5053927;28;20017;-79
2023/06/07 09:16:26;;;;;;;3.42;0.60;;;19.90;99.90;;;;;;5055932;28;20028;-78
2023/06/07 09:18:56;;;;;;;5.30;0.40;;;20.10;99.90;;;;;;5056096;28;20014;-79
2023/06/07 09:21:28;;;;;;;5.63;0.40;;;20.10;99.90;;;;;;5055324;28;20021;-78
2023/06/07 09:23:57;;;;;;;3.45;0.63;;;20.40;99.90;;;;;;5053777;28;20021;-77
2023/06/07 09:26:34;;;;;;;5.50;1.00;;;20.60;99.90;;;;;;5055832;28;20028;-75
2023/06/07 09:29:05;;;;;;;4.53;1.23;;;20.90;99.90;;;;;;5056385;28;20049;-78
2023/06/07 09:31:32;;;;;;;6.68;1.77;;;20.90;99.90;;;;;;5057315;28;20910;-78
2023/06/07 09:33:58;;;;;;;6.22;1.23;;;20.80;99.90;;;;;;5056497;28;20021;-78
2023/06/07 09:36:24;;;;;;;4.22;0.65;;;20.80;99.90;;;;;;5054965;28;20024;-79
2023/06/07 09:38:50;;;;;;;4.72;1.10;;;20.60;99.90;;;;;;5055488;28;20021;-77
2023/06/07 09:41:15;;;;;;;5.68;0.65;;;20.70;99.90;;;;;;5056675;28;20029;-79
2023/06/07 09:43:54;;;;;;;3.60;0.40;;;21.00;99.90;;;;;;5059076;28;20070;-79
2023/06/07 09:46:20;;;;;;;;;;;21.00;99.90;;;;;;5058165;28;20032;-77
2023/06/07 09:48:51;;;;;;;6.03;0.40;;;21.20;99.90;;;;;;5059042;28;20498;-78
2023/06/07 09:51:20;;;;;;;4.63;0.60;;;21.40;99.90;;;;;;5059158;28;20025;-79
2023/06/07 09:53:51;;;;;;;5.63;0.70;;;21.80;99.50;;;;;;5059927;28;20095;-79
2023/06/07 09:56:17;;;;;;;4.15;1.00;;;21.80;99.70;;;;;;5058992;28;20049;-77
2023/06/07 09:58:46;;;;;;;6.63;0.77;;;21.90;99.70;;;;;;5058725;28;20021;-78
2023/06/07 10:01:11;;;;;;;6.60;1.05;;;21.90;99.30;;;;;;5058498;28;20013;-79
2023/06/07 10:03:47;;;;;;;5.18;0.40;;;22.00;99.60;;;;;;5058090;28;20087;-77
2023/06/07 10:06:16;;;;;;;5.25;0.82;;;22.30;97.80;;;;;;5058001;28;20029;-77
2023/06/07 10:08:42;;;;;;;;;;;22.20;97.30;;;;;;5060194;28;20021;-77
2023/06/07 10:11:09;;;;;;;4.03;0.85;;;22.10;97.70;;;;;;5058661;28;19905;-77
2023/06/07 10:13:38;;;;;;;4.07;1.10;;;22.10;97.60;;;;;;5057945;28;20047;-78
2023/06/07 10:16:09;;;;;;;7.85;1.17;;;22.00;97.50;;;;;;5058764;28;20013;-77
2023/06/07 10:18:37;;;;;;;5.55;1.00;;;22.00;97.90;;;;;;5056414;28;20400;-78
2023/06/07 10:21:11;;;;;;;4.82;0.80;;;21.90;97.60;;;;;;5058827;28;20064;-76
2023/06/07 10:23:47;;;;;;;3.85;0.80;;;22.00;96.80;;;;;;5057968;28;20468;-77
2023/06/07 10:26:27;;;;;;;2.55;0.65;;;22.10;98.80;;;;;;5058962;28;20025;-78
2023/06/07 10:29:09;;;;;;;4.00;0.52;;;22.30;96.50;;;;;;5055485;28;20037;-78
2023/06/07 10:31:46;;;;;;;8.18;1.00;;;22.40;95.70;;;;;;5057447;28;20132;-77
2023/06/07 10:34:14;;;;;;;5.07;0.50;;;22.50;96.60;;;;;;5058291;28;20037;-78
2023/06/07 10:36:41;;;;;;;6.03;0.73;;;22.70;97.20;;;;;;5057880;28;20017;-77
2023/06/07 10:39:07;;;;;;;4.70;0.55;;;23.00;96.00;;;;;;5057053;28;20097;-77
2023/06/07 10:41:35;;;;;;;4.45;0.68;;;23.30;95.20;;;;;;5056480;28;20021;-78
2023/06/07 10:44:01;;;;;;;6.32;0.40;;;23.50;95.40;;;;;;5056142;28;20119;-78
2023/06/07 10:46:27;;;;;;;3.47;1.20;;;23.70;94.80;;;;;;5056123;28;20024;-78
2023/06/07 10:48:55;;;;;;;4.32;0.52;;;23.90;93.70;;;;;;5055865;28;20440;-77
2023/06/07 10:51:51;;;;;;;6.78;0.95;;;24.10;94.00;;;;;;5055913;28;20025;-79
2023/06/07 10:54:31;;;;;;;5.88;0.82;;;24.40;93.60;;;;;;5057875;28;20032;-79
2023/06/07 10:56:57;;;;;;;5.15;0.90;;;24.70;93.00;;;;;;5058627;28;20484;-76
2023/06/07 10:59:25;;;;;;;5.53;0.80;;;25.10;90.50;;;;;;5056150;28;20496;-77
2023/06/07 11:01:52;;;;;;;5.20;0.70;;;25.10;90.80;;;;;;5056030;28;20480;-78
2023/06/07 11:04:39;;;;;;;3.35;0.55;;;25.30;90.40;;;;;;5056864;28;20021;-79
2023/06/07 11:07:30;;;;;;;3.22;0.40;;;25.50;89.20;;;;;;5056789;28;20025;-77
2023/06/07 11:10:03;;;;;;;3.10;0.47;;;25.30;88.50;;;;;;5057718;28;20099;-78
2023/06/07 11:12:35;;;;;;;2.67;0.52;;;25.10;89.10;;;;;;5055326;28;20032;-77
2023/06/07 11:15:24;;;;;;;6.32;0.90;;;24.80;89.50;;;;;;5057563;28;20025;-77
2023/06/07 11:18:01;;;;;;;2.47;0.63;;;24.80;89.80;;;;;;5057700;28;20025;-76
2023/06/07 11:20:35;;;;;;;7.35;1.02;;;24.80;87.30;;;;;;5057685;28;20025;-78
2023/06/07 11:23:35;;;;;;;2.03;0.30;;;24.80;89.40;;;;;;5057244;28;20044;-79
2023/06/07 11:26:10;;;;;;;3.35;0.70;;;25.20;89.50;;;;;;5044674;28;20044;-75
2023/06/07 11:28:39;;;;;;;3.33;0.60;;;25.40;87.10;;;;;;5056025;28;20036;-77
2023/06/07 11:31:09;;;;;;;3.28;0.35;;;25.40;88.20;;;;;;5056401;28;20021;-77
2023/06/07 11:33:35;;;;;;;3.90;0.60;;;25.40;89.30;;;;;;5057474;28;20396;-79
2023/06/07 11:36:01;;;;;;;3.45;0.63;;;25.40;89.00;;;;;;5055417;28;20356;-78
2023/06/07 11:38:27;;;;;;;7.47;0.55;;;25.90;85.00;;;;;;5055777;28;20028;-77
2023/06/07 11:40:53;;;;;;;3.67;0.80;;;25.90;85.70;;;;;;5056183;28;20029;-78
2023/06/07 11:43:24;;;;;;;2.75;0.47;;;26.30;84.50;;;;;;5056417;28;20029;-78
2023/06/07 11:45:54;;;;;;;3.22;1.10;;;26.80;84.90;;;;;;5055304;28;20438;-78
2023/06/07 11:48:19;;;;;;;5.35;1.27;;;27.40;79.90;;;;;;5056629;28;20104;-77
2023/06/07 11:50:45;;;;;;;4.40;0.77;;;27.40;80.30;;;;;;5055561;28;20594;-77
2023/06/07 11:53:11;;;;;;;3.40;0.90;;;27.60;81.00;;;;;;5056399;28;20055;-77
2023/06/07 11:55:39;;;;;;;3.38;0.50;;;27.50;77.30;;;;;;5055250;28;20069;-78
2023/06/07 11:58:05;;;;;;;6.57;1.15;;;27.50;76.10;;;;;;5054880;28;20036;-79
2023/06/07 12:00:33;;;;;;;3.00;0.63;;;27.60;78.30;;;;;;5056704;28;20025;-78
2023/06/07 12:03:00;;;;;;;5.65;0.32;;;27.90;76.20;;;;;;5055504;28;20021;-77
2023/06/07 12:05:34;;;;;;;4.65;0.73;;;28.10;76.40;;;;;;5056060;28;20040;-77
2023/06/07 12:08:04;;;;;;;2.63;0.40;;;28.50;74.50;;;;;;5055161;28;20021;-76
2023/06/07 12:10:36;;;;;;;3.78;0.80;;;28.60;71.10;;;;;;5056584;28;20055;-79
2023/06/07 12:13:13;;;;;;;5.57;0.70;;;28.60;71.50;;;;;;5055319;28;20048;-79
2023/06/07 12:15:46;;;;;;;5.32;0.77;;;28.70;72.80;;;;;;5055907;28;20021;-77
2023/06/07 12:18:18;;;;;;;3.13;0.70;;;28.80;72.70;;;;;;5056281;28;20059;-78
2023/06/07 12:20:45;;;;;;;4.35;0.73;;;28.80;72.80;;;;;;5054048;28;20391;-77
2023/06/07 12:23:12;;;;;;;3.00;0.60;;;29.00;72.70;;;;;;5054886;28;20021;-77
2023/06/07 12:25:43;;;;;;;7.18;0.82;;;28.90;72.10;;;;;;5053508;28;20432;-77
2023/06/07 12:28:11;;;;;;;5.90;0.52;;;28.50;70.60;;;;;;5054671;28;20025;-77
2023/06/07 12:30:41;;;;;;;4.15;1.45;;;28.30;71.00;;;;;;5054490;28;20488;-79
2023/06/07 12:33:14;;;;;;;3.97;0.75;;;28.20;68.20;;;;;;5055367;28;20025;-77
2023/06/07 12:35:46;;;;;;;7.68;0.20;;;28.20;71.50;;;;;;5053707;28;20059;-77
2023/06/07 12:38:12;;;;;;;4.78;0.30;;;28.90;69.50;;;;;;5055055;28;20389;-79
2023/06/07 12:40:38;;;;;;;5.55;0.50;;;29.20;68.00;;;;;;5056269;28;20388;-79
2023/06/07 12:43:03;;;;;;;3.17;0.55;;;29.10;68.50;;;;;;5056301;28;20032;-78
2023/06/07 12:45:29;;;;;;;9.15;0.88;;;29.60;69.50;;;;;;5056264;28;20021;-78
2023/06/07 12:47:55;;;;;;;2.13;0.20;;;30.20;64.30;;;;;;5054909;28;20055;-77
2023/06/07 12:50:21;;;;;;;6.00;0.25;;;30.20;65.60;;;;;;5055002;28;20025;-76